sensor_id;sensor_type;location;lat;lon;timestamp;pressure;altitude;pressure_sealevel;temperature;humidity
13690;BME280;6917;52.194;9.894;2023-09-19T00:01:46;99483.19;;;19.35;81.25
13690;BME280;6917;52.194;9.894;2023-09-19T00:04:14;99479.69;;;19.56;79.37
13690;BME280;6917;52.194;9.894;2023-09-19T00:06:40;99454.31;;;19.65;78.28
13690;BME280;6917;52.194;9.894;2023-09-19T00:09:05;99465.78;;;19.99;76.99
13690;BME280;6917;52.194;9.894;2023-09-19T00:11:36;99485.91;;;20.35;76.28
13690;BME280;6917;52.194;9.894;2023-09-19T00:14:01;99419.31;;;18.53;81.30
13690;BME280;6917;52.194;9.894;2023-09-19T00:16:26;99436.66;;;18.50;83.11
13690;BME280;6917;52.194;9.894;2023-09-19T00:18:52;99457.34;;;18.70;83.57
13690;BME280;6917;52.194;9.894;2023-09-19T00:21:17;99481.09;;;18.82;83.63
13690;BME280;6917;52.194;9.894;2023-09-19T00:23:45;99460.91;;;18.67;83.53
13690;BME280;6917;52.194;9.894;2023-09-19T00:26:11;99464.38;;;18.57;83.76
13690;BME280;6917;52.194;9.894;2023-09-19T00:28:36;99485.81;;;18.71;84.00
13690;BME280;6917;52.194;9.894;2023-09-19T00:31:01;99487.88;;;18.95;82.92
13690;BME280;6917;52.194;9.894;2023-09-19T00:33:27;99491.84;;;19.01;82.28
13690;BME280;6917;52.194;9.894;2023-09-19T00:35:55;99501.34;;;19.11;81.89
13690;BME280;6917;52.194;9.894;2023-09-19T00:38:22;99493.47;;;19.38;80.57
13690;BME280;6917;52.194;9.894;2023-09-19T00:40:52;99498.69;;;19.86;78.35
13690;BME280;6917;52.194;9.894;2023-09-19T00:43:19;99503.41;;;20.14;76.17
13690;BME280;6917;52.194;9.894;2023-09-19T00:45:46;99505.72;;;20.51;74.91
13690;BME280;6917;52.194;9.894;2023-09-19T00:48:13;99428.53;;;18.82;76.94
13690;BME280;6917;52.194;9.894;2023-09-19T00:50:41;99459.38;;;18.88;79.53
13690;BME280;6917;52.194;9.894;2023-09-19T00:53:07;99473.59;;;18.90;80.87
13690;BME280;6917;52.194;9.894;2023-09-19T00:55:35;99476.00;;;19.09;80.54
13690;BME280;6917;52.194;9.894;2023-09-19T00:58:02;99490.28;;;19.15;80.45
13690;BME280;6917;52.194;9.894;2023-09-19T01:00:28;99485.53;;;19.15;80.28
13690;BME280;6917;52.194;9.894;2023-09-19T01:02:54;99500.59;;;19.50;79.05
13690;BME280;6917;52.194;9.894;2023-09-19T01:05:19;99450.66;;;18.86;79.10
13690;BME280;6917;52.194;9.894;2023-09-19T01:07:45;99474.03;;;18.99;80.05
13690;BME280;6917;52.194;9.894;2023-09-19T01:10:15;99484.31;;;18.98;80.02
13690;BME280;6917;52.194;9.894;2023-09-19T01:15:44;99504.13;;;19.11;79.71
13690;BME280;6917;52.194;9.894;2023-09-19T01:27:02;99513.50;;;18.78;81.08
13690;BME280;6917;52.194;9.894;2023-09-19T01:30:10;99499.16;;;18.62;81.16
13690;BME280;6917;52.194;9.894;2023-09-19T01:32:36;99499.59;;;18.64;81.01
13690;BME280;6917;52.194;9.894;2023-09-19T01:35:04;99507.09;;;18.63;80.71
13690;BME280;6917;52.194;9.894;2023-09-19T01:37:30;99512.25;;;18.65;80.94
13690;BME280;6917;52.194;9.894;2023-09-19T01:39:59;99520.94;;;18.63;80.75
13690;BME280;6917;52.194;9.894;2023-09-19T01:45:49;99540.53;;;19.10;78.88
13690;BME280;6917;52.194;9.894;2023-09-19T01:51:03;99536.91;;;18.98;78.27
13690;BME280;6917;52.194;9.894;2023-09-19T01:53:41;99534.94;;;18.95;78.12
13690;BME280;6917;52.194;9.894;2023-09-19T01:56:12;99534.09;;;18.91;78.17
13690;BME280;6917;52.194;9.894;2023-09-19T01:58:43;99543.28;;;19.17;77.34
13690;BME280;6917;52.194;9.894;2023-09-19T02:01:12;99540.13;;;19.15;77.18
13690;BME280;6917;52.194;9.894;2023-09-19T02:03:40;99551.16;;;18.97;77.71
13690;BME280;6917;52.194;9.894;2023-09-19T02:06:06;99542.84;;;19.04;77.72
13690;BME280;6917;52.194;9.894;2023-09-19T02:08:36;99523.44;;;18.93;77.47
13690;BME280;6917;52.194;9.894;2023-09-19T02:11:01;99544.44;;;19.01;77.19
13690;BME280;6917;52.194;9.894;2023-09-19T02:13:27;99558.75;;;19.25;76.43
13690;BME280;6917;52.194;9.894;2023-09-19T02:15:53;99538.41;;;18.78;77.21
13690;BME280;6917;52.194;9.894;2023-09-19T02:18:18;99550.16;;;18.61;77.98
13690;BME280;6917;52.194;9.894;2023-09-19T02:20:44;99567.38;;;18.98;77.56
13690;BME280;6917;52.194;9.894;2023-09-19T02:23:11;99577.75;;;19.30;76.45
13690;BME280;6917;52.194;9.894;2023-09-19T02:25:38;99571.38;;;19.22;76.17
13690;BME280;6917;52.194;9.894;2023-09-19T02:28:05;99580.56;;;19.44;75.13
13690;BME280;6917;52.194;9.894;2023-09-19T02:30:31;99563.94;;;19.44;74.44
13690;BME280;6917;52.194;9.894;2023-09-19T02:32:57;99553.97;;;19.18;75.16
13690;BME280;6917;52.194;9.894;2023-09-19T02:35:22;99562.72;;;19.31;75.18
13690;BME280;6917;52.194;9.894;2023-09-19T02:37:48;99586.06;;;19.30;75.27
13690;BME280;6917;52.194;9.894;2023-09-19T02:40:14;99570.59;;;19.11;75.17
13690;BME280;6917;52.194;9.894;2023-09-19T02:42:54;99568.25;;;19.27;74.66
13690;BME280;6917;52.194;9.894;2023-09-19T02:45:20;99563.88;;;19.19;74.45
13690;BME280;6917;52.194;9.894;2023-09-19T02:47:46;99564.25;;;19.18;74.42
13690;BME280;6917;52.194;9.894;2023-09-19T02:50:12;99551.56;;;19.02;74.47
13690;BME280;6917;52.194;9.894;2023-09-19T02:52:40;99555.94;;;19.14;74.16
13690;BME280;6917;52.194;9.894;2023-09-19T02:55:08;99545.19;;;18.95;74.77
13690;BME280;6917;52.194;9.894;2023-09-19T02:57:35;99562.28;;;19.18;74.71
13690;BME280;6917;52.194;9.894;2023-09-19T03:00:02;99575.78;;;19.38;74.42
13690;BME280;6917;52.194;9.894;2023-09-19T03:02:27;99551.22;;;19.18;74.47
13690;BME280;6917;52.194;9.894;2023-09-19T03:04:53;99561.53;;;19.25;74.67
13690;BME280;6917;52.194;9.894;2023-09-19T03:07:19;99559.16;;;19.34;74.25
13690;BME280;6917;52.194;9.894;2023-09-19T03:09:44;99556.69;;;19.00;75.17
13690;BME280;6917;52.194;9.894;2023-09-19T03:12:10;99563.47;;;19.21;74.98
13690;BME280;6917;52.194;9.894;2023-09-19T03:14:36;99573.03;;;19.41;74.44
13690;BME280;6917;52.194;9.894;2023-09-19T03:17:01;99557.53;;;19.19;74.70
13690;BME280;6917;52.194;9.894;2023-09-19T03:19:30;99572.25;;;19.44;74.09
13690;BME280;6917;52.194;9.894;2023-09-19T03:21:56;99548.72;;;18.85;75.12
13690;BME280;6917;52.194;9.894;2023-09-19T03:24:22;99559.03;;;18.91;75.01
13690;BME280;6917;52.194;9.894;2023-09-19T03:26:48;99564.16;;;18.86;75.22
13690;BME280;6917;52.194;9.894;2023-09-19T03:29:14;99562.63;;;18.95;74.01
13690;BME280;6917;52.194;9.894;2023-09-19T03:31:41;99570.16;;;19.06;73.20
13690;BME280;6917;52.194;9.894;2023-09-19T03:34:06;99575.34;;;19.11;72.52
13690;BME280;6917;52.194;9.894;2023-09-19T03:36:35;99578.09;;;19.11;72.90
13690;BME280;6917;52.194;9.894;2023-09-19T03:39:01;99584.03;;;19.16;72.52
13690;BME280;6917;52.194;9.894;2023-09-19T03:41:30;99574.59;;;19.28;71.64
13690;BME280;6917;52.194;9.894;2023-09-19T03:43:56;99587.66;;;19.38;71.79
13690;BME280;6917;52.194;9.894;2023-09-19T03:46:21;99560.69;;;19.14;72.08
13690;BME280;6917;52.194;9.894;2023-09-19T03:48:47;99586.81;;;19.20;71.67
13690;BME280;6917;52.194;9.894;2023-09-19T03:51:12;99588.41;;;19.21;71.64
13690;BME280;6917;52.194;9.894;2023-09-19T03:53:37;99579.06;;;19.68;70.11
13690;BME280;6917;52.194;9.894;2023-09-19T03:56:02;99578.50;;;19.20;70.82
13690;BME280;6917;52.194;9.894;2023-09-19T03:58:28;99603.91;;;19.50;70.40
13690;BME280;6917;52.194;9.894;2023-09-19T04:00:56;99596.00;;;19.45;69.89
13690;BME280;6917;52.194;9.894;2023-09-19T04:03:23;99592.41;;;19.38;69.86
13690;BME280;6917;52.194;9.894;2023-09-19T04:05:48;99628.19;;;20.07;68.14
13690;BME280;6917;52.194;9.894;2023-09-19T04:08:13;99599.66;;;19.71;68.25
13690;BME280;6917;52.194;9.894;2023-09-19T04:10:42;99637.69;;;19.95;68.02
13690;BME280;6917;52.194;9.894;2023-09-19T04:13:07;99633.75;;;20.10;67.51
13690;BME280;6917;52.194;9.894;2023-09-19T04:15:32;99604.38;;;19.59;68.59
13690;BME280;6917;52.194;9.894;2023-09-19T04:17:58;99612.59;;;19.38;68.76
13690;BME280;6917;52.194;9.894;2023-09-19T04:20:23;99614.59;;;19.52;69.33
13690;BME280;6917;52.194;9.894;2023-09-19T04:22:48;99580.97;;;19.43;68.23
13690;BME280;6917;52.194;9.894;2023-09-19T04:25:14;99623.03;;;19.87;68.06
13690;BME280;6917;52.194;9.894;2023-09-19T04:27:39;99621.47;;;20.08;67.26
13690;BME280;6917;52.194;9.894;2023-09-19T04:30:07;99632.94;;;20.10;67.42
13690;BME280;6917;52.194;9.894;2023-09-19T04:32:37;99625.03;;;20.23;66.53
13690;BME280;6917;52.194;9.894;2023-09-19T04:35:09;99653.53;;;20.87;65.18
13690;BME280;6917;52.194;9.894;2023-09-19T04:37:39;99633.38;;;20.51;65.67
13690;BME280;6917;52.194;9.894;2023-09-19T04:40:07;99623.44;;;20.25;66.47
13690;BME280;6917;52.194;9.894;2023-09-19T04:42:37;99618.28;;;19.95;67.02
13690;BME280;6917;52.194;9.894;2023-09-19T04:45:03;99557.50;;;18.35;69.84
13690;BME280;6917;52.194;9.894;2023-09-19T04:47:29;99602.31;;;18.55;71.04
13690;BME280;6917;52.194;9.894;2023-09-19T04:49:55;99616.69;;;18.79;71.29
13690;BME280;6917;52.194;9.894;2023-09-19T04:52:21;99581.28;;;18.43;71.66
13690;BME280;6917;52.194;9.894;2023-09-19T04:54:47;99591.88;;;18.34;72.08
13690;BME280;6917;52.194;9.894;2023-09-19T04:57:13;99599.00;;;18.35;72.28
13690;BME280;6917;52.194;9.894;2023-09-19T04:59:38;99597.78;;;18.29;72.32
13690;BME280;6917;52.194;9.894;2023-09-19T05:02:06;99664.69;;;19.04;71.54
13690;BME280;6917;52.194;9.894;2023-09-19T05:04:33;99592.94;;;18.74;70.00
13690;BME280;6917;52.194;9.894;2023-09-19T05:06:59;99598.63;;;19.02;68.80
13690;BME280;6917;52.194;9.894;2023-09-19T05:09:26;99622.81;;;19.13;69.06
13690;BME280;6917;52.194;9.894;2023-09-19T05:11:51;99624.66;;;18.87;69.88
13690;BME280;6917;52.194;9.894;2023-09-19T05:14:18;99637.28;;;18.85;69.96
13690;BME280;6917;52.194;9.894;2023-09-19T05:16:44;99634.22;;;19.04;69.24
13690;BME280;6917;52.194;9.894;2023-09-19T05:19:10;99651.41;;;19.49;67.79
13690;BME280;6917;52.194;9.894;2023-09-19T05:21:38;99645.41;;;19.29;68.04
13690;BME280;6917;52.194;9.894;2023-09-19T05:24:05;99624.44;;;19.28;67.14
13690;BME280;6917;52.194;9.894;2023-09-19T05:26:32;99653.38;;;19.41;67.29
13690;BME280;6917;52.194;9.894;2023-09-19T05:28:57;99657.25;;;19.22;68.18
13690;BME280;6917;52.194;9.894;2023-09-19T05:31:22;99672.34;;;19.32;68.08
13690;BME280;6917;52.194;9.894;2023-09-19T05:33:49;99689.38;;;19.38;68.00
13690;BME280;6917;52.194;9.894;2023-09-19T05:36:15;99691.78;;;19.39;67.72
13690;BME280;6917;52.194;9.894;2023-09-19T05:38:41;99615.59;;;18.35;68.04
13690;BME280;6917;52.194;9.894;2023-09-19T05:41:07;99591.38;;;17.37;70.95
13690;BME280;6917;52.194;9.894;2023-09-19T05:43:34;99704.81;;;18.73;69.58
13690;BME280;6917;52.194;9.894;2023-09-19T05:46:02;99634.97;;;17.54;71.26
13690;BME280;6917;52.194;9.894;2023-09-19T05:48:28;99628.22;;;17.18;72.51
13690;BME280;6917;52.194;9.894;2023-09-19T05:50:53;99631.84;;;17.22;72.99
13690;BME280;6917;52.194;9.894;2023-09-19T05:53:18;99634.13;;;17.16;73.25
13690;BME280;6917;52.194;9.894;2023-09-19T05:55:43;99647.53;;;17.18;73.72
13690;BME280;6917;52.194;9.894;2023-09-19T05:58:09;99647.25;;;17.27;73.78
13690;BME280;6917;52.194;9.894;2023-09-19T06:00:35;99668.06;;;17.20;73.56
13690;BME280;6917;52.194;9.894;2023-09-19T06:03:01;99664.03;;;17.11;73.58
13690;BME280;6917;52.194;9.894;2023-09-19T06:05:27;99666.00;;;17.10;72.95
13690;BME280;6917;52.194;9.894;2023-09-19T06:07:54;99679.00;;;17.10;72.88
13690;BME280;6917;52.194;9.894;2023-09-19T06:10:19;99672.75;;;17.16;72.53
13690;BME280;6917;52.194;9.894;2023-09-19T06:12:48;99696.25;;;17.33;72.32
13690;BME280;6917;52.194;9.894;2023-09-19T06:15:15;99698.50;;;17.24;72.60
13690;BME280;6917;52.194;9.894;2023-09-19T06:18:10;99680.97;;;17.09;72.71
13690;BME280;6917;52.194;9.894;2023-09-19T06:20:37;99681.25;;;17.04;73.03
13690;BME280;6917;52.194;9.894;2023-09-19T06:23:02;99708.66;;;17.16;73.13
13690;BME280;6917;52.194;9.894;2023-09-19T06:25:28;99690.63;;;16.96;73.15
13690;BME280;6917;52.194;9.894;2023-09-19T06:27:53;99692.22;;;16.97;73.03
13690;BME280;6917;52.194;9.894;2023-09-19T06:30:23;99700.97;;;17.03;73.18
13690;BME280;6917;52.194;9.894;2023-09-19T06:32:58;99687.66;;;16.59;74.30
13690;BME280;6917;52.194;9.894;2023-09-19T06:35:23;99697.16;;;16.61;74.54
13690;BME280;6917;52.194;9.894;2023-09-19T06:37:51;99695.78;;;16.71;74.48
13690;BME280;6917;52.194;9.894;2023-09-19T06:40:17;99690.69;;;16.50;75.02
13690;BME280;6917;52.194;9.894;2023-09-19T06:42:44;99708.34;;;16.69;74.66
13690;BME280;6917;52.194;9.894;2023-09-19T06:45:11;99684.69;;;16.68;74.70
13690;BME280;6917;52.194;9.894;2023-09-19T06:47:38;99769.91;;;17.82;72.96
13690;BME280;6917;52.194;9.894;2023-09-19T06:50:04;99735.56;;;18.20;70.02
13690;BME280;6917;52.194;9.894;2023-09-19T06:52:31;99734.19;;;18.40;68.91
13690;BME280;6917;52.194;9.894;2023-09-19T06:54:58;99713.81;;;18.19;68.94
13690;BME280;6917;52.194;9.894;2023-09-19T06:57:23;99738.94;;;18.43;68.46
13690;BME280;6917;52.194;9.894;2023-09-19T06:59:49;99726.53;;;17.90;69.38
13690;BME280;6917;52.194;9.894;2023-09-19T07:02:15;99735.38;;;18.02;69.72
13690;BME280;6917;52.194;9.894;2023-09-19T07:04:43;99736.09;;;17.96;69.70
13690;BME280;6917;52.194;9.894;2023-09-19T07:07:08;99762.13;;;18.32;69.37
13690;BME280;6917;52.194;9.894;2023-09-19T07:09:35;99735.56;;;18.20;68.89
13690;BME280;6917;52.194;9.894;2023-09-19T07:12:00;99750.69;;;18.33;68.62
13690;BME280;6917;52.194;9.894;2023-09-19T07:14:26;99751.63;;;18.48;68.04
13690;BME280;6917;52.194;9.894;2023-09-19T07:16:55;99701.19;;;17.80;68.90
13690;BME280;6917;52.194;9.894;2023-09-19T07:19:20;99764.09;;;18.31;68.44
13690;BME280;6917;52.194;9.894;2023-09-19T07:21:48;99781.28;;;18.51;68.56
13690;BME280;6917;52.194;9.894;2023-09-19T07:24:15;99762.75;;;18.14;69.90
13690;BME280;6917;52.194;9.894;2023-09-19T07:26:40;99755.25;;;18.56;67.96
13690;BME280;6917;52.194;9.894;2023-09-19T07:29:06;99766.13;;;18.79;67.18
13690;BME280;6917;52.194;9.894;2023-09-19T07:31:34;99774.06;;;18.80;67.28
13690;BME280;6917;52.194;9.894;2023-09-19T07:33:59;99772.00;;;18.70;66.84
13690;BME280;6917;52.194;9.894;2023-09-19T07:36:24;99758.44;;;18.58;66.34
13690;BME280;6917;52.194;9.894;2023-09-19T07:38:50;99733.81;;;18.46;65.99
13690;BME280;6917;52.194;9.894;2023-09-19T07:41:15;99730.28;;;18.49;65.99
13690;BME280;6917;52.194;9.894;2023-09-19T07:43:40;99743.69;;;18.43;66.42
13690;BME280;6917;52.194;9.894;2023-09-19T07:46:06;99750.09;;;18.54;66.07
13690;BME280;6917;52.194;9.894;2023-09-19T07:48:33;99775.44;;;18.60;65.79
13690;BME280;6917;52.194;9.894;2023-09-19T07:51:03;99782.75;;;18.79;65.33
13690;BME280;6917;52.194;9.894;2023-09-19T07:53:29;99785.13;;;18.80;65.48
13690;BME280;6917;52.194;9.894;2023-09-19T07:56:04;99802.34;;;19.07;64.85
13690;BME280;6917;52.194;9.894;2023-09-19T07:58:30;99784.63;;;19.15;64.23
13690;BME280;6917;52.194;9.894;2023-09-19T08:00:56;99792.56;;;19.20;64.12
13690;BME280;6917;52.194;9.894;2023-09-19T08:03:21;99806.09;;;19.32;64.38
13690;BME280;6917;52.194;9.894;2023-09-19T08:05:47;99795.09;;;19.47;63.49
13690;BME280;6917;52.194;9.894;2023-09-19T08:08:13;99780.03;;;19.41;62.67
13690;BME280;6917;52.194;9.894;2023-09-19T08:10:39;99752.78;;;18.88;63.56
13690;BME280;6917;52.194;9.894;2023-09-19T08:13:07;99783.75;;;19.04;64.15
13690;BME280;6917;52.194;9.894;2023-09-19T08:15:43;99797.38;;;19.30;63.28
13690;BME280;6917;52.194;9.894;2023-09-19T08:18:13;99755.56;;;18.91;63.10
13690;BME280;6917;52.194;9.894;2023-09-19T08:20:38;99739.72;;;18.88;63.37
13690;BME280;6917;52.194;9.894;2023-09-19T08:23:07;99753.84;;;18.72;64.05
13690;BME280;6917;52.194;9.894;2023-09-19T08:25:33;99767.41;;;18.88;63.59
13690;BME280;6917;52.194;9.894;2023-09-19T08:27:59;99759.09;;;18.88;63.27
13690;BME280;6917;52.194;9.894;2023-09-19T08:30:28;99751.47;;;18.75;63.79
13690;BME280;6917;52.194;9.894;2023-09-19T08:32:59;99784.63;;;19.19;63.50
13690;BME280;6917;52.194;9.894;2023-09-19T08:35:24;99772.69;;;19.08;63.43
13690;BME280;6917;52.194;9.894;2023-09-19T08:37:50;99805.47;;;19.57;62.29
13690;BME280;6917;52.194;9.894;2023-09-19T08:40:16;99789.00;;;19.92;61.05
13690;BME280;6917;52.194;9.894;2023-09-19T08:42:56;99755.13;;;19.48;61.23
13690;BME280;6917;52.194;9.894;2023-09-19T08:45:25;99789.72;;;19.68;62.21
13690;BME280;6917;52.194;9.894;2023-09-19T08:50:33;99769.19;;;19.18;62.05
13690;BME280;6917;52.194;9.894;2023-09-19T08:53:13;99775.59;;;19.29;62.51
13690;BME280;6917;52.194;9.894;2023-09-19T08:55:41;99795.50;;;19.52;62.25
13690;BME280;6917;52.194;9.894;2023-09-19T08:58:10;99761.75;;;19.29;62.13
13690;BME280;6917;52.194;9.894;2023-09-19T09:00:37;99755.66;;;19.06;62.63
13690;BME280;6917;52.194;9.894;2023-09-19T09:03:04;99791.16;;;19.51;62.56
13690;BME280;6917;52.194;9.894;2023-09-19T09:05:32;99778.78;;;19.31;62.57
13690;BME280;6917;52.194;9.894;2023-09-19T09:07:58;99784.03;;;19.50;61.97
13690;BME280;6917;52.194;9.894;2023-09-19T09:10:24;99799.25;;;19.81;61.44
13690;BME280;6917;52.194;9.894;2023-09-19T09:12:51;99782.94;;;19.58;61.62
13690;BME280;6917;52.194;9.894;2023-09-19T09:15:19;99802.44;;;19.83;60.86
13690;BME280;6917;52.194;9.894;2023-09-19T09:17:48;99778.19;;;19.59;61.20
13690;BME280;6917;52.194;9.894;2023-09-19T09:20:15;99749.31;;;19.01;62.00
13690;BME280;6917;52.194;9.894;2023-09-19T09:22:53;99792.09;;;19.70;61.12
13690;BME280;6917;52.194;9.894;2023-09-19T09:25:19;99824.66;;;19.94;61.64
13690;BME280;6917;52.194;9.894;2023-09-19T09:27:58;99792.13;;;19.80;61.31
13690;BME280;6917;52.194;9.894;2023-09-19T09:30:34;99798.97;;;20.08;61.22
13690;BME280;6917;52.194;9.894;2023-09-19T09:33:14;99796.63;;;20.20;60.68
13690;BME280;6917;52.194;9.894;2023-09-19T09:35:55;99828.03;;;20.46;59.88
13690;BME280;6917;52.194;9.894;2023-09-19T09:38:48;99792.69;;;20.39;60.05
13690;BME280;6917;52.194;9.894;2023-09-19T09:41:16;99794.66;;;20.35;60.18
13690;BME280;6917;52.194;9.894;2023-09-19T09:43:52;99781.09;;;19.95;60.41
13690;BME280;6917;52.194;9.894;2023-09-19T09:46:19;99765.13;;;19.67;60.15
13690;BME280;6917;52.194;9.894;2023-09-19T09:48:56;99764.78;;;19.79;60.10
13690;BME280;6917;52.194;9.894;2023-09-19T09:51:51;99791.03;;;20.06;60.88
13690;BME280;6917;52.194;9.894;2023-09-19T09:54:26;99740.06;;;19.45;60.59
13690;BME280;6917;52.194;9.894;2023-09-19T09:57:11;99762.34;;;19.63;60.66
13690;BME280;6917;52.194;9.894;2023-09-19T10:02:27;99808.84;;;20.05;61.41
13690;BME280;6917;52.194;9.894;2023-09-19T10:04:58;99760.81;;;19.69;61.36
13690;BME280;6917;52.194;9.894;2023-09-19T10:07:32;99795.44;;;20.25;60.96
13690;BME280;6917;52.194;9.894;2023-09-19T10:10:06;99803.78;;;20.32;60.13
13690;BME280;6917;52.194;9.894;2023-09-19T10:12:43;99816.56;;;20.55;60.25
13690;BME280;6917;52.194;9.894;2023-09-19T10:15:11;99798.63;;;20.38;60.03
13690;BME280;6917;52.194;9.894;2023-09-19T10:17:42;99811.41;;;20.57;59.76
13690;BME280;6917;52.194;9.894;2023-09-19T10:20:09;99798.63;;;20.38;59.67
13690;BME280;6917;52.194;9.894;2023-09-19T10:22:48;99825.28;;;20.57;60.05
13690;BME280;6917;52.194;9.894;2023-09-19T10:25:26;99795.47;;;20.32;59.72
13690;BME280;6917;52.194;9.894;2023-09-19T10:27:54;99784.38;;;20.29;60.54
13690;BME280;6917;52.194;9.894;2023-09-19T10:30:22;99817.34;;;20.62;59.89
13690;BME280;6917;52.194;9.894;2023-09-19T10:33:01;99823.31;;;20.93;59.14
13690;BME280;6917;52.194;9.894;2023-09-19T10:35:27;99849.53;;;21.31;59.56
13690;BME280;6917;52.194;9.894;2023-09-19T10:37:54;99806.25;;;21.05;58.49
13690;BME280;6917;52.194;9.894;2023-09-19T10:40:22;99798.31;;;21.07;57.99
13690;BME280;6917;52.194;9.894;2023-09-19T10:43:00;99782.06;;;21.16;57.45
13690;BME280;6917;52.194;9.894;2023-09-19T10:45:28;99780.47;;;20.94;57.47
13690;BME280;6917;52.194;9.894;2023-09-19T10:47:57;99770.19;;;20.73;58.79
13690;BME280;6917;52.194;9.894;2023-09-19T10:50:23;99753.91;;;20.64;57.29
13690;BME280;6917;52.194;9.894;2023-09-19T10:52:49;99755.91;;;20.74;58.12
13690;BME280;6917;52.194;9.894;2023-09-19T10:55:24;99817.00;;;21.31;57.49
13690;BME280;6917;52.194;9.894;2023-09-19T10:57:50;99759.44;;;21.14;56.71
13690;BME280;6917;52.194;9.894;2023-09-19T11:00:17;99785.22;;;20.83;57.73
13690;BME280;6917;52.194;9.894;2023-09-19T11:05:40;99818.16;;;21.45;56.95
13690;BME280;6917;52.194;9.894;2023-09-19T11:08:10;99808.22;;;21.12;57.47
13690;BME280;6917;52.194;9.894;2023-09-19T11:10:50;99795.53;;;21.18;57.39
13690;BME280;6917;52.194;9.894;2023-09-19T11:13:25;99827.28;;;21.38;57.20
13690;BME280;6917;52.194;9.894;2023-09-19T11:18:52;99795.53;;;21.25;56.18
13690;BME280;6917;52.194;9.894;2023-09-19T11:26:49;99780.03;;;21.49;55.74
13690;BME280;6917;52.194;9.894;2023-09-19T11:29:40;99813.28;;;21.81;55.65
13690;BME280;6917;52.194;9.894;2023-09-19T11:32:06;99791.00;;;21.88;55.34
13690;BME280;6917;52.194;9.894;2023-09-19T11:39:36;99770.00;;;21.69;55.50
13690;BME280;6917;52.194;9.894;2023-09-19T11:45:06;99813.16;;;22.20;54.87
13690;BME280;6917;52.194;9.894;2023-09-19T11:47:32;99844.63;;;22.76;53.44
13690;BME280;6917;52.194;9.894;2023-09-19T11:50:01;99813.25;;;22.65;52.69
13690;BME280;6917;52.194;9.894;2023-09-19T11:52:28;99768.78;;;22.58;52.20
13690;BME280;6917;52.194;9.894;2023-09-19T11:55:00;99761.72;;;22.42;52.58
13690;BME280;6917;52.194;9.894;2023-09-19T11:57:28;99813.34;;;22.54;52.77
13690;BME280;6917;52.194;9.894;2023-09-19T11:59:55;99808.25;;;23.01;51.46
13690;BME280;6917;52.194;9.894;2023-09-19T12:02:39;99759.09;;;22.73;51.15
13690;BME280;6917;52.194;9.894;2023-09-19T12:05:06;99818.13;;;23.09;51.29
13690;BME280;6917;52.194;9.894;2023-09-19T12:07:42;99816.41;;;23.22;51.12
13690;BME280;6917;52.194;9.894;2023-09-19T12:10:08;99810.88;;;23.19;51.43
13690;BME280;6917;52.194;9.894;2023-09-19T12:12:36;99862.31;;;23.93;50.65
13690;BME280;6917;52.194;9.894;2023-09-19T12:15:02;99812.97;;;23.49;50.10
13690;BME280;6917;52.194;9.894;2023-09-19T12:17:39;99788.81;;;23.35;49.54
13690;BME280;6917;52.194;9.894;2023-09-19T12:20:06;99772.31;;;23.10;49.51
13690;BME280;6917;52.194;9.894;2023-09-19T12:22:46;99750.00;;;22.65;50.30
13690;BME280;6917;52.194;9.894;2023-09-19T12:25:12;99789.78;;;22.66;51.15
13690;BME280;6917;52.194;9.894;2023-09-19T12:27:45;99734.00;;;21.33;53.93
13690;BME280;6917;52.194;9.894;2023-09-19T12:30:27;99711.47;;;20.85;53.74
13690;BME280;6917;52.194;9.894;2023-09-19T12:32:52;99703.53;;;20.80;54.22
13690;BME280;6917;52.194;9.894;2023-09-19T12:35:31;99726.53;;;20.88;54.27
13690;BME280;6917;52.194;9.894;2023-09-19T12:38:00;99736.81;;;20.94;54.62
13690;BME280;6917;52.194;9.894;2023-09-19T12:40:26;99750.31;;;21.03;54.00
13690;BME280;6917;52.194;9.894;2023-09-19T12:42:54;99730.09;;;20.77;54.43
13690;BME280;6917;52.194;9.894;2023-09-19T12:45:20;99742.38;;;21.05;54.44
13690;BME280;6917;52.194;9.894;2023-09-19T12:48:24;99726.50;;;21.09;54.71
13690;BME280;6917;52.194;9.894;2023-09-19T12:51:06;99788.97;;;21.95;53.88
13690;BME280;6917;52.194;9.894;2023-09-19T12:53:34;99740.69;;;21.50;53.24
13690;BME280;6917;52.194;9.894;2023-09-19T12:56:03;99783.84;;;21.90;53.04
13690;BME280;6917;52.194;9.894;2023-09-19T12:58:31;99772.34;;;21.88;52.20
13690;BME280;6917;52.194;9.894;2023-09-19T13:00:57;99769.16;;;21.86;51.91
13690;BME280;6917;52.194;9.894;2023-09-19T13:05:55;99730.84;;;21.06;53.28
13690;BME280;6917;52.194;9.894;2023-09-19T13:08:24;99712.97;;;21.11;53.20
13690;BME280;6917;52.194;9.894;2023-09-19T13:11:15;99772.41;;;21.71;53.06
13690;BME280;6917;52.194;9.894;2023-09-19T13:19:45;99729.25;;;21.20;52.97
13690;BME280;6917;52.194;9.894;2023-09-19T13:22:36;99685.28;;;20.26;54.62
13690;BME280;6917;52.194;9.894;2023-09-19T13:25:24;99701.16;;;20.46;54.37
13690;BME280;6917;52.194;9.894;2023-09-19T13:27:54;99743.19;;;21.02;54.21
13690;BME280;6917;52.194;9.894;2023-09-19T13:30:22;99751.09;;;21.18;54.01
13690;BME280;6917;52.194;9.894;2023-09-19T13:32:48;99736.41;;;21.17;54.48
13690;BME280;6917;52.194;9.894;2023-09-19T13:35:14;99671.81;;;20.67;54.87
13690;BME280;6917;52.194;9.894;2023-09-19T13:37:41;99713.44;;;20.92;54.20
13690;BME280;6917;52.194;9.894;2023-09-19T13:40:08;99730.44;;;21.22;54.04
13690;BME280;6917;52.194;9.894;2023-09-19T13:42:34;99712.19;;;21.28;53.82
13690;BME280;6917;52.194;9.894;2023-09-19T13:45:04;99699.94;;;21.01;54.42
13690;BME280;6917;52.194;9.894;2023-09-19T13:47:30;99711.41;;;21.17;54.56
13690;BME280;6917;52.194;9.894;2023-09-19T13:49:56;99727.69;;;21.04;55.42
13690;BME280;6917;52.194;9.894;2023-09-19T13:52:22;99713.81;;;21.01;55.95
13690;BME280;6917;52.194;9.894;2023-09-19T13:54:50;99718.91;;;21.24;54.58
13690;BME280;6917;52.194;9.894;2023-09-19T13:57:16;99734.72;;;21.52;54.51
13690;BME280;6917;52.194;9.894;2023-09-19T13:59:42;99680.81;;;21.24;54.19
13690;BME280;6917;52.194;9.894;2023-09-19T14:02:07;99718.09;;;21.45;54.13
13690;BME280;6917;52.194;9.894;2023-09-19T14:04:32;99757.47;;;22.20;53.09
13690;BME280;6917;52.194;9.894;2023-09-19T14:07:00;99683.44;;;21.67;53.08
13690;BME280;6917;52.194;9.894;2023-09-19T14:09:25;99703.66;;;21.75;52.84